Tiempo atmosférico en la estación meteorológica de Hellín, Albacete (520 m.)



Fecha
DESCASC
Temp. máxima en grados centígrados (hora)
DESCASC
Temp. mínima en grados centígrados (hora)
DESCASC
Temp. media en grados centígrados
DESCASC
Racha de viento máxima en m/sg (hora)
DESCASC
Velocidad máxima media en intervalos de 10 minutos(hora)
DESCASC
Precipitaciones diarias en mm
DESCASC
Precipitaciones de 00:00 a 06:00 en mm
DESCASC
Precipitaciones de 06:00 a 12:00 en mm
DESCASC
Precipitaciones de 12:00 a 18:00 en mm
DESCASC
Precipitaciones de 18:00 a 24:00 en mm
DESCASC
05-04-2020 17.2 (17:00) 7 (06:00) 12.1 7.78 (15:00) 3.89 (14:50) 0 0 0 0 0
04-04-2020 16.4 (17:00) 6.1 (04:50) 11.2 9.17 (13:00) 4.72 (12:50) 0 0 0 0 0
03-04-2020 18.2 (16:20) 5.6 (07:50) 11.9 7.5 (19:30) 3.61 (19:40) 0.1 0.1 0 0 0
02-04-2020 15.5 (16:20) 4.5 (00:00) 10 9.17 (18:50) 3.33 (16:30) 0.2 0.2 0 0 0
01-04-2020 16.6 (13:50) 5.8 (00:00) 11.2 7.5 (03:20) 4.17 (17:30) 24.4 7.9 0.1 0.5 15.9
31-03-2020 14.6 (17:00) 5.8 (00:00) 10.2 6.11 (07:50) 3.61 (04:50) 10.1 9.3 0.8 0 0
30-03-2020 15.9 (12:30) 5.9 (00:00) 10.9 10.28 (21:10) 6.11 (20:50) 26.9 0 0 10.2 16.7
29-03-2020 18 (17:40) 2.8 (00:00) 10.4 7.22 (15:30) 3.61 (11:50) 0 0 0 0 0
28-03-2020 13.7 (18:30) 2.1 (00:00) 7.9 6.11 (01:40) 3.89 (01:40) 14.3 14.3 0 0 0
27-03-2020 6.5 (00:10) 3.6 (00:00) 5 10.28 (14:20) 5.28 (13:40) 9.1 0 6.7 1.9 0.5
26-03-2020 14.8 (16:00) 6.2 (00:00) 10.5 13.06 (16:20) 6.94 (11:50) 1.2 1.1 0.1 0 0
25-03-2020 13.6 (15:40) 4.9 (00:00) 9.3 10 (19:30) 3.89 (18:50) 7.6 0 0 0 7.6
24-03-2020 9.5 (10:00) 7.1 (00:00) 8.3 10.83 (07:10) 5.83 (08:10) 45 24.8 8.1 12.1 0
23-03-2020 13 (17:10) 7.8 (00:00) 10.4 8.61 (13:10) 5.56 (13:10) 12.2 0 1.4 1.2 9.6
22-03-2020 10.8 (17:10) 4.5 (00:10) 7.7 6.11 (17:30) 3.33 (01:10) 1.4 0.1 0.1 1.1 0.1
21-03-2020 11.7 (12:00) 4 (00:00) 7.8 7.78 (14:40) 4.72 (14:40) 17.8 0.7 0.6 15 1.5
20-03-2020 12.9 (13:00) 7.6 (00:00) 10.2 7.22 (20:20) 4.44 (18:20) 0.2 0 0 0 0.2
19-03-2020 13.5 (13:00) 6 (00:00) 9.8 5.28 (18:20) 3.33 (18:20) 0 0 0 0 0
18-03-2020 14.7 (15:00) 7.8 (00:00) 11.3 10 (13:20) 5.28 (12:20) 0 0 0 0 0
17-03-2020 12.9 (17:30) 3.7 (00:00) 8.3 12.5 (19:50) 6.67 (20:10) 0.1 0 0 0 0.1
16-03-2020 11.3 (00:10) 3.4 (00:00) 7.4 6.67 (12:50) 3.89 (09:40) 8.3 2 5.1 1.2 0
15-03-2020 19.2 (14:30) 9.4 (00:00) 14.3 7.5 (18:00) 4.44 (18:00) 0.1 0 0 0 0.1
14-03-2020 21 (15:40) 7 (00:00) 14 5.56 (16:20) 3.06 (16:40) 0 0 0 0 0
13-03-2020 22 (14:20) 10.5 (06:40) 16.3 7.22 (17:00) 3.89 (16:20) 0 0 0 0 0
12-03-2020 26.2 (16:00) 10.8 (00:00) 18.5 5.83 (14:50) 3.06 (14:40) 0 0 0 0 0
11-03-2020 28.1 (16:10) 12.2 (00:00) 20.2 5.56 (05:20) 3.33 (05:10) 0 0 0 0 0
10-03-2020 23.6 (17:20) 9.6 (00:00) 16.6 14.72 (02:30) 8.33 (02:20) 0 0 0 0 0

Gráficas

Temp. máximas Temp. mínimas Temp. medias Precipitaciones Rachas de viento máximas Velocidades máximas media en intervalos de 10 minutos

Datos horarios

Fecha y hora oficial Temperatura (ºC) Velocidad del viento (km/h) Dirección del viento Racha (km/h) Dirección de racha Precipitación (mm) Presión (hPa) Tendencia (hPa) Humedad (%)
2020-04-08 23:00:00 11.4 5 Nordeste 21 Norte 0 953 1.6 53
2020-04-08 22:00:00 12.6 7 Norte 20 Norte 0 952.5 1.6 44
2020-04-08 21:00:00 14.1 11 Norte 20 Norte 0 951.8 0.8 34
2020-04-08 20:00:00 16.7 8 Norte 22 Norte 0 951.4 -0.1 30
2020-04-08 19:00:00 18.3 9 Norte 24 Norte 0 950.9 -1.1 33
2020-04-08 18:00:00 19 14 Norte 25 Norte 0 951 -1.8 33
2020-04-08 17:00:00 19.1 8 Norte 26 Noroeste 0 951.5 -1.7 33
2020-04-08 16:00:00 18.8 12 Norte 21 Norte 0 952 -1.7 33
2020-04-08 15:00:00 17.7 8 Norte 22 Norte 0 952.8 -1.7 31
2020-04-08 14:00:00 17.2 9 Norte 18 Norte 0 953.2 -1.4 33
2020-04-08 13:00:00 15.8 4 Noroeste 14 Norte 0 953.7 -1 42
2020-04-08 12:00:00 13.4 6 Norte 13 Norte 0 954.5 -0.2 48
2020-04-08 11:00:00 11.2 4 Norte 9 Norte 0 954.6 0.4 98
2020-04-08 10:00:00 9 0 Calma 5 Nordeste 0 954.7 0.6 99
2020-04-08 09:00:00 7.7 2 Oeste 8 Sudoeste 0 954.7 0.5 99
2020-04-08 08:00:00 7.4 3 Sur 7 Sudoeste 0 954.2 -0.3 98
2020-04-08 07:00:00 7.7 3 Sudoeste 7 Sudoeste 0 954.1 -0.8 97
2020-04-08 06:00:00 7.5 0 Calma 3 Este 0 954.2 -1.3 96
2020-04-08 05:00:00 7.7 0 Calma 2 Sudoeste 0 954.5 -1.3 96
2020-04-08 04:00:00 8.8 0 Calma 0 Calma 0 954.9 -1.2 95
2020-04-08 03:00:00 8.9 0 Calma 5 Noroeste 0 955.5 -0.2 95
2020-04-08 02:00:00 8.9 0 Calma 6 Nordeste 0 955.8 0.1 92
2020-04-08 01:00:00 9.4 0 Calma 8 Noroeste 0 956.1 1.2 88
2020-04-08 00:00:00 10.2 2 Nordeste 18 Noroeste 0 955.7 1.6 82
2020-04-07 23:00:00 11.1 10 Norte 18 Norte 0 955.7 2 77
2020-04-07 22:00:00 12.2 8 Norte 16 Noroeste 0 954.9 1.7 56
2020-04-07 21:00:00 14 8 Norte 22 Norte 0 954.1 1 49
2020-04-07 20:00:00 16.1 10 Norte 21 Norte 0 953.7 0.6 47
2020-04-07 19:00:00 17.6 11 Norte 23 Norte 0 953.2 -0.5 46
2020-04-07 18:00:00 18.3 12 Norte 23 Norte 0 953.1 -1.1 44
2020-04-07 17:00:00 18.9 10 Norte 24 Norte 0 953.1 -1.5 42
2020-04-07 16:00:00 18.5 9 Noroeste 23 Norte 0 953.7 -1.3 39
2020-04-07 15:00:00 17.4 10 Noroeste 23 Norte 0 954.2 -1.1 42
2020-04-07 14:00:00 16.6 8 Norte 20 Norte 0 954.6 -0.7 47
2020-04-07 13:00:00 15.2 5 Norte 15 Norte 0 955 -0.1 62
2020-04-07 12:00:00 14 8 Norte 14 Norte 0 955.3 1.1 71
2020-04-07 11:00:00 12.2 5 Norte 11 Norte 0 955.3 1 97
2020-04-07 10:00:00 10.4 2 Sudoeste 12 Oeste 0 955.1 1.1 98
2020-04-07 09:00:00 9.6 7 Oeste 12 Oeste 0 954.2 0.4 98
2020-04-07 08:00:00 9.1 0 Calma 6 Noroeste 0 954.3 0.5 98
2020-04-07 07:00:00 9.4 0 Calma 8 Norte 0 954 0.1 98
2020-04-07 06:00:00 9.6 3 Noroeste 8 Noroeste 0 953.8 -0.5 98
2020-04-07 05:00:00 9.5 0 Calma 5 Este 0 953.8 -0.2 98
2020-04-07 04:00:00 8.7 0 Calma 3 Este 0 953.9 -0.5 97
2020-04-07 03:00:00 8.9 3 Sudeste 6 Este 0.1 954.3 0.2 96
2020-04-07 02:00:00 9.8 0 Calma 6 Este 0 954 -0.2 95
2020-04-07 01:00:00 10.4 0 Calma 14 Norte 0 954.4 0.7 94
2020-04-07 00:00:00 11 8 Norte 14 Noroeste 0 954.1 1.4 93
2020-04-06 23:00:00 11.7 5 Norte 17 Noroeste 0.1 954.2 2 86
2020-04-06 22:00:00 13 8 Norte 18 Norte 0 953.7 1.9 77
2020-04-06 21:00:00 14.4 9 Norte 19 Noroeste 0 952.7 1.1 72
2020-04-06 20:00:00 15.8 6 Noroeste 18 Norte 0 952.2 0.7 61
2020-04-06 19:00:00 16.6 13 Norte 22 Norte 0 951.8 -0.2 56
2020-04-06 18:00:00 17.8 10 Norte 20 Norte 0 951.6 -0.8 54
2020-04-06 17:00:00 18.5 8 Noroeste 21 Norte 0 951.5 -1 54
2020-04-06 16:00:00 17.9 8 Norte 17 Norte 0 952 -0.7 59
2020-04-06 15:00:00 16.4 8 Norte 15 Norte 0 952.4 -0.8 66
2020-04-06 14:00:00 14.6 4 Norte 14 Nordeste 0 952.5 -0.2 72
2020-04-06 13:00:00 13.4 5 Norte 11 Oeste 0 952.7 0.7 80
2020-04-06 12:00:00 11.9 3 Norte 10 Nordeste 0 953.2 1.7 90
2020-04-06 11:00:00 10.4 2 Noroeste 9 Norte 0 952.7 1.5 95
2020-04-06 10:00:00 9.8 0 Calma 6 Noroeste 0 952 1.7 95
2020-04-06 09:00:00 9.5 0 Calma 6 Norte 0 951.5 1.2 96
2020-04-06 08:00:00 9.2 3 Nordeste 9 Norte 0 951.2 0.8 95
2020-04-06 07:00:00 9.3 3 Norte 6 Norte 0 950.3 -0.4 95
2020-04-06 06:00:00 9.4 0 Calma 7 Norte 0 950.3 -0.4 95
2020-04-06 05:00:00 9.3 5 Norte 10 Norte 0 950.4 -0.3 94
2020-04-06 04:00:00 9.4 4 Norte 8 Norte 0 950.7 0.3 93
2020-04-06 03:00:00 9.5 5 Norte 9 Norte 0 950.7 -0.1 93
2020-04-06 02:00:00 9.5 0 Calma 10 Norte 0 950.7 0.8 93
2020-04-06 01:00:00 9.7 5 Noroeste 15 Norte 0 950.4 0.7 91
2020-04-06 00:00:00 10 8 Norte 16 Norte 0 950.8 2.1 89
2020-04-05 23:00:00 10.4 9 Noroeste 17 Noroeste 0 949.9 1.6 85
2020-04-05 22:00:00 11.3 8 Noroeste 17 Norte 0 949.7 1.6 78
2020-04-05 21:00:00 12.2 9 Noroeste 20 Noroeste 0 948.7 0.9 72
2020-04-05 20:00:00 13.9 8 Noroeste 21 Norte 0 948.3 0.3 60
2020-04-05 19:00:00 16 10 Norte 22 Norte 0 948.1 -0.3 53
2020-04-05 18:00:00 16.8 8 Noroeste 27 Norte 0 947.8 -1.3 49
2020-04-05 17:00:00 17.1 10 Noroeste 23 Noroeste 0 948 -1.6 48
2020-04-05 16:00:00 16.5 10 Noroeste 24 Noroeste 0 948.4 -1.4 48
2020-04-05 15:00:00 16.1 13 Noroeste 28 Norte 0 949.1 -1.2 49
2020-04-05 14:00:00 15.5 8 Noroeste 21 Noroeste 0 949.6 -0.6 48
2020-04-05 13:00:00 14.2 9 Norte 24 Norte 0 949.8 -0.2 57
2020-04-05 12:00:00 12.7 8 Noroeste 17 Norte 0 950.3 0.4 61
2020-04-05 11:00:00 11.4 8 Norte 17 Norte 0 950.2 0.7 80
2020-04-05 10:00:00 9.7 6 Norte 12 Norte 0 950 1.2 94
2020-04-05 09:00:00 8.9 0 Calma 4 Oeste 0 949.9 1.1 94
2020-04-05 08:00:00 7.8 0 Calma 3 Noroeste 0 949.5 0.9 95
2020-04-05 07:00:00 7.5 0 Calma 4 Noroeste 0 948.8 -0.1 94
2020-04-05 06:00:00 7 0 Calma 3 Nordeste 0 948.8 -0.6 91
2020-04-05 05:00:00 8 0 Calma 5 Noroeste 0 948.6 -1 88
2020-04-05 04:00:00 9 0 Calma 8 Norte 0 948.9 -0.8 86
2020-04-05 03:00:00 9.3 2 Noroeste 11 Noroeste 0 949.4 0.3 86
2020-04-05 02:00:00 9.3 7 Norte 15 Norte 0 949.6 0.1 86
2020-04-05 01:00:00 9.4 6 Norte 11 Norte 0 949.7 0.4 83
2020-04-05 00:00:00 9.6 4 Noroeste 18 Noroeste 0 949.1 0.5 83
2020-04-04 23:00:00 10 9 Noroeste 21 Norte 0 949.5 1.4 81
2020-04-04 22:00:00 10.5 9 Noroeste 18 Norte 0 949.3 1.6 75
2020-04-04 21:00:00 11 9 Noroeste 19 Noroeste 0 948.6 1.4 67
2020-04-04 20:00:00 12.3 8 Noroeste 23 Noroeste 0 948.1 0.9 56
2020-04-04 19:00:00 12.9 16 Noroeste 31 Noroeste 0 947.7 0.4 49
2020-04-04 18:00:00 14.2 11 Noroeste 30 Noroeste 0 947.2 -0.7 42
2020-04-04 17:00:00 16.3 10 Oeste 33 Oeste 0 947.2 -1.2 40
2020-04-04 16:00:00 15.2 11 Sudoeste 31 Oeste 0 947.3 -1.4 45
2020-04-04 15:00:00 14.8 10 Sudoeste 29 Oeste 0 947.9 -0.9 49
2020-04-04 14:00:00 14.2 10 Sudoeste 31 Oeste 0 948.4 -0.4 55
2020-04-04 13:00:00 12.6 14 Sudoeste 33 Oeste 0 948.7 0.1 63
2020-04-04 12:00:00 11.7 10 Oeste 21 Oeste 0 948.8 0.7 73
2020-04-04 11:00:00 9.8 6 Sudoeste 15 Sudoeste 0 948.8 1 94
2020-04-04 10:00:00 8.6 7 Oeste 14 Oeste 0 948.6 1.1 96
2020-04-04 09:00:00 7.9 4 Sudoeste 10 Oeste 0 948.1 0.5 96
2020-04-04 08:00:00 7.3 2 Sur 9 Sur 0 947.8 0.2 96
2020-04-04 07:00:00 7.5 3 Sur 9 Sur 0 947.5 -0.2 96
2020-04-04 06:00:00 6.5 0 Calma 5 Sudeste 0 947.6 -0.4 96
2020-04-04 05:00:00 6.3 3 Este 5 Sudeste 0 947.6 -0.6 95
2020-04-04 04:00:00 6.3 4 Este 8 Este 0 947.7 -0.5 94
2020-04-04 03:00:00 6.6 3 Sudeste 5 Sudeste 0 948 -0.3 92
2020-04-04 02:00:00 7.4 0 Calma 4 Sudeste 0 948.2 0.2 89
2020-04-04 01:00:00 8.1 0 Calma 5 Oeste 0 948.2 1 85
2020-04-04 00:00:00 8.9 0 Calma 20 Oeste 0 948.3 2 79
2020-04-03 23:00:00 9.7 10 Oeste 21 Oeste 0 948 2.3 73
2020-04-03 22:00:00 10.6 6 Oeste 19 Oeste 0 947.2 1.8 65
2020-04-03 21:00:00 11.8 7 Sudoeste 24 Sudoeste 0 946.3 1 59
2020-04-03 20:00:00 14.2 8 Sudoeste 27 Oeste 0 945.7 0 47
2020-04-03 19:00:00 17.1 9 Oeste 19 Oeste 0 945.4 -0.4 35
2020-04-03 18:00:00 17.3 4 Sudoeste 17 Sudoeste 0 945.3 -0.8 36
2020-04-03 17:00:00 16.1 6 Sur 13 Oeste 0 945.7 -0.9 38
2020-04-03 16:00:00 17.6 4 Noroeste 14 Oeste 0 945.8 -1.2 39
2020-04-03 15:00:00 14.9 0 Calma 14 Sur 0 946.1 -1.2 44
2020-04-03 14:00:00 15.8 3 Sudoeste 14 Sur 0 946.6 -0.3 47
2020-04-03 13:00:00 13.7 6 Sudeste 19 Sur 0 947 0.3 51
2020-04-03 12:00:00 12.3 8 Sudeste 16 Sudeste 0 947.3 1.1 61
2020-04-03 11:00:00 11.1 4 Este 15 Este 0 946.9 1.4 73
2020-04-03 10:00:00 9.1 9 Este 15 Este 0 946.7 1.7 88
2020-04-03 09:00:00 7.2 7 Este 13 Este 0 946.2 1.4 96
2020-04-03 08:00:00 5.8 4 Este 10 Nordeste 0 945.5 1.3 95
2020-04-03 07:00:00 6.5 5 Este 15 Nordeste 0 945 1 95
2020-04-03 06:00:00 6.4 8 Nordeste 15 Nordeste 0 944.8 0.5 95
2020-04-03 05:00:00 7 9 Nordeste 14 Nordeste 0 944.2 -0.3 93
2020-04-03 04:00:00 7.5 7 Nordeste 13 Nordeste 0 944 -0.4 92
2020-04-03 03:00:00 8.5 3 Este 8 Este 0 944.3 -0.2 92
2020-04-03 02:00:00 8.4 4 Este 9 Este 0.1 944.5 0.6 92
2020-04-03 01:00:00 8.8 5 Sudeste 14 Nordeste 0 944.4 1.1 89
2020-04-03 00:00:00 9.5 5 Este 11 Este 0 944.5 2.1 85
2020-04-02 23:00:00 9.3 2 Sudeste 6 Sudeste 0 943.9 2.2 84
2020-04-02 22:00:00 9.1 2 Norte 7 Oeste 0 943.3 2.5 84
2020-04-02 21:00:00 9.2 4 Noroeste 12 Oeste 0 942.4 2.6 76
2020-04-02 20:00:00 10.4 9 Sudoeste 24 Sudoeste 0 941.7 2 68
2020-04-02 19:00:00 12.2 11 Sudoeste 33 Sudoeste 0 940.8 0.5 55
2020-04-02 18:00:00 14.2 8 Sudeste 15 Sur 0 939.8 -0.7 42
2020-04-02 17:00:00 13.5 10 Sur 28 Sudeste 0 939.7 -1.2 45
2020-04-02 16:00:00 14.2 9 Sudeste 16 Sudeste 0 940.3 -1.3 43
2020-04-02 15:00:00 12.6 6 Sudeste 19 Sudeste 0 940.5 -1.4 56
2020-04-02 14:00:00 13.4 4 Sur 14 Noroeste 0 940.9 -0.8 55
2020-04-02 13:00:00 12.8 4 Oeste 14 Sudoeste 0 941.6 0.4 60
2020-04-02 12:00:00 10.6 4 Sur 9 Sur 0 941.9 0.9 66
2020-04-02 11:00:00 10 0 Calma 12 Sur 0 941.7 1 76
2020-04-02 10:00:00 8.7 3 Sudeste 9 Sudeste 0 941.2 0.9 88
2020-04-02 09:00:00 6.6 4 Este 9 Este 0 941 0.7 97
2020-04-02 08:00:00 5 4 Este 10 Este 0 940.7 0.1 97
2020-04-02 07:00:00 4.9 3 Este 8 Este 0 940.3 -0.8 97
2020-04-02 06:00:00 5.3 3 Este 8 Este 0.1 940.3 -1.3 97
2020-04-02 05:00:00 5.1 2 Norte 8 Norte 0 940.6 -1.8 97
2020-04-02 04:00:00 6.5 0 Calma 3 Sur 0 941.1 -1.6 97
2020-04-02 03:00:00 7.3 0 Calma 5 Norte 0 941.6 -1.2 97
2020-04-02 02:00:00 7.3 0 Calma 4 Norte 0.1 942.4 0.1 96
2020-04-02 01:00:00 7.9 0 Calma 5 Noroeste 0 942.7 1 96
2020-04-02 00:00:00 8.2 0 Calma 7 Oeste 0 942.8 2.1 94
2020-04-01 23:00:00 8.4 0 Calma 22 Noroeste 6.2 942.3 2.4 93
2020-04-01 22:00:00 9.6 6 Sudoeste 21 Este 5.6 941.7 2.1 89
2020-04-01 21:00:00 10.1 3 Este 18 Este 4.1 940.7 0.9 80
2020-04-01 20:00:00 12.9 12 Sudeste 21 Sudeste 0 939.9 -0.6 63
2020-04-01 19:00:00 14.2 10 Sudeste 21 Sudeste 0 939.6 -0.8 60
2020-04-01 18:00:00 13.3 13 Sudeste 24 Este 0 939.8 -0.6 69
2020-04-01 17:00:00 12.5 12 Nordeste 22 Nordeste 0.5 940.5 -0.6 80
2020-04-01 16:00:00 13.7 10 Sudeste 18 Sudeste 0 940.4 -1.1 57
2020-04-01 15:00:00 15.4 8 Sudeste 17 Sudeste 0 940.4 -1.9 49
2020-04-01 14:00:00 15.7 6 Sur 19 Noroeste 0 941.1 -1.1 45
2020-04-01 13:00:00 16.1 6 Oeste 19 Oeste 0 941.5 -0.3 53
2020-04-01 12:00:00 14.1 6 Noroeste 13 Oeste 0 942.3 0.5 71
2020-04-01 11:00:00 11.7 3 Oeste 12 Oeste 0 942.2 1.1 91
2020-04-01 10:00:00 9.7 6 Este 10 Nordeste 0 941.8 0.9 98
2020-04-01 09:00:00 7.6 2 Este 5 Este 0.1 941.8 1 98
2020-04-01 08:00:00 6.1 0 Calma 5 Norte 0 941.1 -0.2 98
2020-04-01 07:00:00 6.4 4 Norte 8 Nordeste 0 940.9 0.1 98
2020-04-01 06:00:00 7.4 2 Este 12 Sudeste 0.1 940.8 -0.5 97
2020-04-01 05:00:00 7 0 Calma 14 Sudeste 0 941.3 0.1 97
2020-04-01 04:00:00 7.9 12 Este 27 Norte 7.6 940.8 -0.4 97
2020-04-01 03:00:00 9.3 5 Sudeste 23 Sur 0.1 941.3 0 97
2020-04-01 02:00:00 9.2 12 Sudeste 24 Sur 0 941.2 0.2 96
2020-04-01 01:00:00 9.5 11 Sur 18 Sudeste 0.1 941.2 0.7 96
2020-04-01 00:00:00 10 11 Sudeste 22 Sur 0 941.3 1.9 94
2020-03-31 23:00:00 10.5 11 Sur 22 Sur 0 941 2 91
2020-03-31 22:00:00 11.7 9 Sur 18 Sur 0 940.5 1.9 85
2020-03-31 21:00:00 12.1 4 Sudoeste 17 Sudoeste 0 939.4 1.1 81
2020-03-31 20:00:00 12.5 3 Sudoeste 17 Sudoeste 0 939 0.7 77
2020-03-31 19:00:00 13.2 6 Sudoeste 14 Sudoeste 0 938.6 0.4 69
2020-03-31 18:00:00 13.8 5 Sudoeste 14 Sur 0 938.3 -0.4 65
2020-03-31 17:00:00 14.4 8 Sudoeste 22 Sudoeste 0 938.3 -0.5 63
2020-03-31 16:00:00 13.5 9 Sudoeste 20 Sudoeste 0 938.2 -0.6 68
2020-03-31 15:00:00 12.2 6 Oeste 15 Sudoeste 0 938.7 -0.2 75
2020-03-31 14:00:00 11.8 4 Sudoeste 17 Sur 0 938.8 -0.3 78
2020-03-31 13:00:00 11 8 Sur 19 Sur 0 938.8 0 82
2020-03-31 12:00:00 8.9 9 Sur 18 Sur 0.1 938.9 0.8 98
2020-03-31 11:00:00 7.3 10 Sudeste 19 Sudeste 0 939.1 1.5 99
2020-03-31 10:00:00 6.5 7 Sudeste 14 Sudeste 0 938.8 1.5 99
2020-03-31 09:00:00 6.5 6 Sur 19 Sur 0 938.1 1 99
2020-03-31 08:00:00 5.9 10 Sudeste 22 Sudeste 0.5 937.6 0.1 99
2020-03-31 07:00:00 6.3 11 Sur 22 Sur 0.2 937.3 -0.9 99
2020-03-31 06:00:00 6.5 9 Sudeste 19 Sur 0.1 937.1 -2.1 99
2020-03-31 05:00:00 6.6 11 Sudeste 21 Sudeste 0.1 937.5 -2 99
2020-03-31 04:00:00 6.8 6 Sudeste 15 Sudeste 1.7 938.2 -1.9 99
2020-03-31 03:00:00 6.6 0 Calma 12 Sudeste 0.3 939.2 -1.4 99
2020-03-31 02:00:00 6.3 5 Sudeste 13 Sudeste 2.4 939.5 -0.6 99
2020-03-31 01:00:00 6.1 7 Sudeste 12 Sudeste 4.7 940.1 0.1 99
2020-03-31 00:00:00 6 3 Sudeste 25 Sur 4.9 940.6 0.8 99
2020-03-30 23:00:00 6.1 15 Sur 31 Sudeste 3.5 940.1 0.5 99
2020-03-30 22:00:00 6.5 14 Sur 37 Sur 1.8 940 -0.3 98
2020-03-30 21:00:00 7.1 22 Sur 37 Sur 0.6 939.8 -0.3 98
2020-03-30 20:00:00 8.1 12 Sudeste 24 Sudeste 2.9 939.6 -0.4 98
2020-03-30 19:00:00 9 9 Sudeste 21 Sur 3 940.3 -0.2 97
2020-03-30 18:00:00 9.4 5 Sur 18 Sur 3.2 940.1 -0.1 95
2020-03-30 17:00:00 9.7 8 Sudeste 16 Sudeste 0.8 940 -1.1 92
2020-03-30 16:00:00 10.3 8 Sur 20 Oeste 6.2 940.5 -1.1 83
2020-03-30 15:00:00 13.3 10 Sudeste 18 Sudeste 0 940.2 -1.8 61
2020-03-30 14:00:00 14.5 3 Sudeste 16 Sudeste 0 941.1 -1.2 48
2020-03-30 13:00:00 15.2 4 Este 20 Noroeste 0 941.6 -0.8 49
2020-03-30 12:00:00 14.6 3 Noroeste 10 Noroeste 0 942 -0.4 60
2020-03-30 11:00:00 13.1 0 Calma 9 Oeste 0 942.3 0.2 67
2020-03-30 10:00:00 9.8 4 Sudeste 8 Oeste 0 942.4 0.5 86
2020-03-30 09:00:00 8.7 0 Calma 4 Sudoeste 0 942.4 0 82
2020-03-30 08:00:00 8.5 2 Sudeste 4 Sudeste 0 942.1 -0.7 81
2020-03-30 07:00:00 8.3 0 Calma 8 Este 0 941.9 -1.2 77
2020-03-30 06:00:00 8.4 0 Calma 10 Este 0 942.4 -1.4 74
2020-03-30 05:00:00 8.5 8 Este 10 Este 0 942.8 -1.5 77
2020-03-30 04:00:00 8.1 0 Calma 6 Norte 0 943.1 -1.7 78
2020-03-30 03:00:00 8.2 3 Norte 8 Este 0 943.8 -1.1 76
2020-03-30 02:00:00 9.3 0 Calma 9 Este 0 944.3 -0.8 71
2020-03-30 01:00:00 10.1 0 Calma 13 Este 0 944.8 -0.4 68
2020-03-30 00:00:00 10.7 5 Este 6 Este 0 944.9 0.2 66
2020-03-29 23:00:00 11.8 0 Calma 5 Noroeste 0 945.1 0.4 59
2020-03-29 22:00:00 12.7 3 Oeste 10 Oeste 0 945.2 0.6 54
2020-03-29 21:00:00 14.2 2 Este 8 Este 0 944.7 0.1 40
2020-03-29 20:00:00 15.8 5 Nordeste 13 Nordeste 0 944.7 -0.4 36
2020-03-29 19:00:00 17.2 7 Nordeste 24 Sudeste 0 944.6 -1.3 33
2020-03-29 18:00:00 17.5 5 Sudeste 21 Nordeste 0 944.6 -2 33
2020-03-29 17:00:00 17.7 8 Nordeste 24 Nordeste 0 945.1 -2 34
2020-03-29 16:00:00 17.1 8 Este 26 Este 0 945.9 -1.9 34
2020-03-29 15:00:00 16.5 8 Este 21 Este 0 946.6 -1.7 36
2020-03-29 14:00:00 16.1 10 Nordeste 24 Nordeste 0 947.1 -1.3 37
2020-03-29 13:00:00 15.1 10 Nordeste 22 Nordeste 0 947.8 -0.5 40
2020-03-29 12:00:00 13.9 12 Nordeste 21 Nordeste 0 948.3 0.1 45
2020-03-29 11:00:00 12 9 Nordeste 18 Nordeste 0 948.4 0.4 54
2020-03-29 10:00:00 8.6 4 Nordeste 9 Este 0 948.3 0.6 72
2020-03-29 09:00:00 5.2 0 Calma 12 Nordeste 0 948.2 0.6 91
2020-03-29 08:00:00 3.5 0 Calma 7 Sur 0 948 0.1 92
2020-03-29 07:00:00 3.1 0 Calma 3 Sudeste 0 947.7 -0.7 90
2020-03-29 06:00:00 3.4 0 Calma 9 Este 0 947.6 -1.3 88
2020-03-29 05:00:00 4.8 4 Este 8 Nordeste 0 947.9 -1.4 86
2020-03-29 03:00:00 5 0 Calma 8 Este 0 948.9 -0.2 84
2020-03-29 01:00:00 6.1 0 Calma 12 Este 0 949.3 0.4 81
2020-03-29 00:00:00 6.7 5 Este 11 Nordeste 0 949.3 0.6 81
2020-03-28 23:00:00 7.2 6 Este 8 Este 0 949.1 1.1 78
2020-03-28 22:00:00 7.5 0 Calma 7 Sudeste 0 948.9 1.5 72
2020-03-28 21:00:00 8.3 5 Este 8 Sudeste 0 948.7 1.8 66
2020-03-28 20:00:00 10.1 3 Sudeste 14 Sur 0 948 1.2 52
2020-03-28 19:00:00 12.3 7 Sudeste 14 Sur 0 947.4 0.6 42
2020-03-28 18:00:00 13.2 2 Este 12 Este 0 946.9 -0.2 44
2020-03-28 17:00:00 12.6 6 Nordeste 13 Este 0 946.8 -0.6 45
2020-03-28 16:00:00 12.5 6 Este 16 Sur 0 946.8 -0.9 45
2020-03-28 15:00:00 11.6 4 Sudeste 18 Nordeste 0 947.1 -0.9 44
2020-03-28 14:00:00 11.7 3 Nordeste 15 Norte 0 947.4 -0.7 45
2020-03-28 13:00:00 10.8 5 Sudeste 17 Sudeste 0 947.7 -0.1 47
2020-03-28 12:00:00 10.1 4 Este 12 Oeste 0 948 0.6 57
2020-03-28 11:00:00 8.7 2 Oeste 10 Noroeste 0 948.1 1 70
2020-03-28 10:00:00 6.8 3 Este 11 Este 0 947.8 1.3 90
2020-03-28 09:00:00 5.4 5 Nordeste 11 Nordeste 0 947.4 1.2 98
2020-03-28 08:00:00 3.3 4 Nordeste 10 Nordeste 0 947.1 1.2 98
2020-03-28 07:00:00 2.1 0 Calma 8 Norte 0 946.5 0.6 97
2020-03-28 06:00:00 3.1 5 Norte 9 Norte 0.2 946.2 0.5 97
2020-03-28 05:00:00 3.7 3 Norte 6 Nordeste 3.1 945.9 0.2 97
2020-03-28 04:00:00 4.1 2 Este 12 Sudeste 2.8 945.9 0.9 97
2020-03-28 03:00:00 4.4 5 Sudeste 16 Sudeste 2.3 945.7 0.7 97
2020-03-28 02:00:00 4.7 9 Sudeste 22 Sudeste 3.5 945.7 1.3 97
2020-03-28 01:00:00 5.4 4 Sudeste 13 Sudeste 2.4 945 0.6 97
2020-03-28 00:00:00 5.4 7 Sudeste 14 Sudeste 0.5 945 1.1 96
2020-03-27 23:00:00 5.5 4 Sudeste 9 Sudeste 0 944.4 1.4 95
2020-03-27 22:00:00 5.5 3 Sudeste 12 Sudeste 0 944.4 1.8 95
2020-03-27 21:00:00 5.3 5 Sudeste 15 Sur 0 943.9 2 96
2020-03-27 20:00:00 5.2 10 Sudeste 18 Sudeste 0 943 1.4 96
2020-03-27 19:00:00 5.1 9 Sudeste 19 Sur 0 942.6 1 96
2020-03-27 18:00:00 5 12 Sudeste 23 Sudeste 0 941.9 0.2 96
2020-03-27 17:00:00 4.7 17 Sudeste 30 Sudeste 0 941.6 -0.4 97
2020-03-27 16:00:00 4.5 14 Sudeste 25 Sudeste 0.2 941.6 -0.6 97
2020-03-27 15:00:00 4.4 13 Sudeste 37 Sudeste 1.4 941.7 -0.5 97
2020-03-27 14:00:00 4.6 12 Sudeste 28 Sudeste 0.2 942 0 97
2020-03-27 13:00:00 4 15 Sudeste 21 Sudeste 0.1 942.2 0.6 97
2020-03-27 12:00:00 3.7 15 Sudeste 25 Sudeste 1.4 942.2 0.8 97
2020-03-27 11:00:00 4.4 14 Sur 27 Sudeste 1.1 942 1.2 95
2020-03-27 10:00:00 4.3 11 Sur 32 Sudeste 1.6 941.6 1.2 95
2020-03-27 09:00:00 4.5 11 Sur 27 Sur 2.4 941.4 1.2 94
2020-03-27 08:00:00 4.9 15 Sur 28 Sudeste 0.1 940.8 0.5 89
2020-03-27 07:00:00 5 18 Sur 29 Sur 0.1 940.4 -0.1 86
2020-03-27 06:00:00 5.5 12 Sur 22 Sudeste 0 940.2 -0.6 82
2020-03-27 05:00:00 5.8 10 Sur 19 Sudeste 0 940.3 -0.6 82
2020-03-27 04:00:00 6 11 Sudeste 19 Sudeste 0 940.5 -0.5 81
2020-03-27 03:00:00 6.2 8 Sudeste 18 Sudeste 0 940.8 -0.2 78
2020-03-27 02:00:00 6.4 10 Sudeste 21 Sudeste 0 940.9 0 75
2020-03-27 01:00:00 6.3 13 Sudeste 26 Sudeste 0 941 0.7 74
2020-03-27 00:00:00 6.4 13 Sudeste 22 Este 0 941 1.7 72
2020-03-26 23:00:00 6.7 4 Sudeste 17 Sur 0 940.9 2.7 72
2020-03-26 22:00:00 7.3 11 Sudeste 30 Sur 0 940.3 2.5 68
2020-03-26 21:00:00 9.4 3 Sudeste 15 Sur 0 939.3 2 40
2020-03-26 20:00:00 11.1 9 Este 19 Este 0 938.2 0.7 31
2020-03-26 19:00:00 12.8 13 Este 28 Este 0 937.8 0.4 28
2020-03-26 18:00:00 14.1 17 Este 38 Nordeste 0 937.3 -0.3 24
2020-03-26 17:00:00 14.6 22 Nordeste 47 Nordeste 0 937.5 -0.3 25
2020-03-26 16:00:00 14.8 18 Nordeste 44 Nordeste 0 937.4 -0.7 28
2020-03-26 15:00:00 14.2 23 Nordeste 44 Nordeste 0 937.6 -1 30
2020-03-26 14:00:00 13.8 22 Nordeste 39 Nordeste 0 937.8 -1.2 30
2020-03-26 13:00:00 13.4 21 Nordeste 44 Este 0 938.1 -0.9 32
2020-03-26 12:00:00 12.4 23 Nordeste 41 Nordeste 0 938.6 0.2 34
2020-03-26 11:00:00 11.4 24 Nordeste 40 Nordeste 0 939 0.3 46
2020-03-26 10:00:00 11 19 Nordeste 32 Norte 0.1 939 0.2 63
2020-03-26 09:00:00 9.1 0 Calma 5 Sur 0 938.4 -0.9 99
2020-03-26 08:00:00 6.9 0 Calma 4 Oeste 0 938.7 -0.9 99
2020-03-26 07:00:00 6.3 2 Oeste 8 Oeste 0 938.8 -1.4 99
2020-03-26 06:00:00 6.3 0 Calma -- -- 0 939.3 -2 99
2020-03-26 05:00:00 6.3 0 Calma 2 Sudoeste 0 939.6 -2.6 99
2020-03-26 04:00:00 6.3 3 Oeste 6 Oeste 0 940.2 -3 99
2020-03-26 03:00:00 6.3 3 Oeste 14 Oeste 0 941.3 -2.8 98
2020-03-26 02:00:00 6.5 5 Sudoeste 13 Sudoeste 0.5 942.2 -2 98
2020-03-26 01:00:00 6.7 0 Calma 7 Sudoeste 0.6 943.2 -1.4 97
2020-03-26 00:00:00 6.6 3 Sudoeste 13 Sudoeste 0 944.1 -0.7 97
2020-03-25 23:00:00 6.8 3 Sur 15 Sur 0 944.2 -0.3 95
2020-03-25 22:00:00 6.5 2 Sur 8 Este 0 944.6 1.4 93
2020-03-25 21:00:00 6.2 2 Sudeste 24 Sudeste 0 944.8 1.4 89
2020-03-25 20:00:00 7.3 10 Sudeste 36 Este 7.6 944.5 0.9 86
2020-03-25 19:00:00 10.4 13 Sudoeste 25 Sudoeste 0 943.2 -0.7 67
2020-03-25 18:00:00 12.5 10 Sudoeste 19 Sudoeste 0 943.4 -1 51
2020-03-25 17:00:00 12.5 5 Sur 13 Sur 0 943.6 -1.6 50
2020-03-25 16:00:00 13.3 0 Calma 17 Sudoeste 0 943.9 -1.9 48
2020-03-25 15:00:00 12.3 2 Sudeste 16 Oeste 0 944.4 -1.6 50
2020-03-25 14:00:00 11.2 4 Sudeste 12 Sudeste 0 945.2 -1 54
2020-03-25 13:00:00 10.5 3 Este 9 Norte 0 945.8 -0.6 56
2020-03-25 12:00:00 10.7 3 Norte 13 Sudeste 0 946 -0.1 61
2020-03-25 11:00:00 9.2 5 Sudeste 10 Norte 0 946.2 0.3 67
2020-03-25 10:00:00 7.9 5 Nordeste 12 Norte 0 946.4 0.4 88
2020-03-25 09:00:00 6.6 5 Nordeste 10 Nordeste 0 946.1 0.4 92
2020-03-25 08:00:00 5.5 0 Calma 12 Nordeste 0 945.9 0.2 92
2020-03-25 07:00:00 5.4 5 Nordeste 12 Nordeste 0 946 0 92
2020-03-25 06:00:00 4.9 5 Nordeste 13 Nordeste 0 945.7 -0.5 91
2020-03-25 05:00:00 5.6 6 Nordeste 11 Nordeste 0 945.7 -0.8 89
2020-03-25 04:00:00 6.2 6 Nordeste 10 Nordeste 0 946 -0.5 87
2020-03-25 03:00:00 6.4 6 Nordeste 10 Nordeste 0 946.2 -0.2 85
2020-03-25 02:00:00 6.7 3 Nordeste 10 Este 0 946.5 0.1 84
2020-03-25 01:00:00 6.9 3 Nordeste 14 Este 0 946.5 0.4 83
2020-03-25 00:00:00 7.2 5 Este 19 Este 0 946.4 0.3 82
2020-03-24 23:00:00 7.4 9 Este 25 Sudeste 0 946.4 1 81
2020-03-24 22:00:00 7.6 14 Este 29 Sudeste 0 946.1 1.3 81
2020-03-24 21:00:00 7.9 17 Este 32 Este 0 946.1 1.7 80
2020-03-24 20:00:00 8.1 15 Este 24 Este 0 945.4 1.5 90
2020-03-24 19:00:00 8.4 15 Este 28 Este 0 944.8 0.9 92
2020-03-24 18:00:00 8.8 15 Este 37 Este 0.1 944.4 0.4 92
2020-03-24 17:00:00 9.1 8 Sudeste 27 Sudeste 0.2 943.9 -0.5 97
2020-03-24 16:00:00 8.8 12 Este 25 Este 1.4 943.9 -0.7 97
2020-03-24 15:00:00 9.1 13 Sudeste 34 Sudeste 2.7 944 -0.9 97
2020-03-24 14:00:00 9.3 17 Sudeste 34 Sudeste 3.3 944.4 -0.6 97
2020-03-24 13:00:00 9.2 12 Sudeste 28 Sudeste 4.4 944.6 -0.1 97
2020-03-24 12:00:00 9 7 Este 13 Este 4.2 944.9 0.5 97
2020-03-24 11:00:00 8.5 9 Sudeste 27 Sudeste 3.4 945 1.1 95
2020-03-24 10:00:00 9.3 15 Sudeste 32 Sur 0 944.7 0.8 91
2020-03-24 09:00:00 9.1 9 Sudeste 36 Este 0 944.4 0.2 97
2020-03-24 08:00:00 8.8 18 Este 39 Este 0 943.9 -0.4 98
2020-03-24 07:00:00 8.1 14 Este 31 Este 0.5 943.9 -0.8 99
2020-03-24 06:00:00 7.9 3 Este 11 Sudeste 1.2 944.2 -0.4 99
2020-03-24 05:00:00 7.8 9 Sudeste 22 Sudeste 9 944.3 -0.6 99
2020-03-24 04:00:00 8 5 Oeste 12 Oeste 6.3 944.7 -0.2 98
2020-03-24 03:00:00 8.4 5 Sudoeste 12 Sudoeste 5.3 944.6 -0.6 97
2020-03-24 02:00:00 8.8 3 Sur 17 Sur 2.5 944.9 -0.2 97
2020-03-24 01:00:00 9 5 Sudeste 17 Este 0.5 944.9 -0.1 97
2020-03-24 00:00:00 9.2 8 Este 23 Este 0.1 945.2 0.4 97
2020-03-23 23:00:00 9.3 10 Este 18 Sudeste 0.5 945.1 0.5 97
2020-03-23 22:00:00 9.5 7 Este 16 Sudeste 2.7 945 0.8 97
2020-03-23 21:00:00 9.5 5 Sudeste 14 Este 2.3 944.8 1.2 95
2020-03-23 20:00:00 9.5 9 Sudeste 31 Sudeste 3.1 944.6 1.6 94
2020-03-23 19:00:00 10.1 12 Este 27 Este 0.9 944.2 0.9 91
2020-03-23 18:00:00 11.9 12 Sudeste 27 Sur 0 943.6 -0.2 71
2020-03-23 17:00:00 12.9 10 Sudeste 26 Sudeste 0 943 -1.9 65
2020-03-23 16:00:00 12.7 10 Sudeste 25 Sudeste 0 943.3 -2 66
2020-03-23 15:00:00 12.2 8 Sudeste 23 Sudeste 0.1 943.8 -1.4 73
2020-03-23 14:00:00 10.4 15 Sudeste 31 Sudeste 0.1 944.9 -0.2 82
2020-03-23 13:00:00 9.9 15 Sudeste 29 Sur 1 945.3 0.3 91
2020-03-23 12:00:00 11.7 11 Sur 24 Sur 0 945.2 0.6 77
2020-03-23 11:00:00 11 9 Sur 18 Sudoeste 0 945.1 0.8 89
2020-03-23 10:00:00 10.5 6 Sur 12 Sur 0 945 1.3 97
2020-03-23 09:00:00 8.9 0 Calma 5 Sudeste 0 944.6 1.4 97
2020-03-23 08:00:00 8.1 0 Calma -- -- 0 944.3 1.3 97
2020-03-23 07:00:00 7.9 0 Calma 5 Este 1.4 943.7 0.9 97
2020-03-23 06:00:00 7.9 0 Calma 4 Este 0 943.2 0 96
2020-03-23 05:00:00 8.1 0 Calma 8 Este 0 943 -0.5 95
2020-03-23 04:00:00 8 5 Este 8 Este 0 942.8 -0.8 95
2020-03-23 03:00:00 8 5 Este 9 Este 0 943.2 -0.6 95
2020-03-23 02:00:00 8 0 Calma 5 Este 0 943.5 -0.3 95
2020-03-23 01:00:00 8 2 Este 8 Este 0 943.6 0.3 95
2020-03-23 00:00:00 8.2 0 Calma 3 Sudeste 0.1 943.8 0.7 92
2020-03-22 23:00:00 8.3 0 Calma 7 Sudeste 0 943.8 1.6 92
2020-03-22 22:00:00 8.5 0 Calma 11 Sur 0 943.3 1.7 92
2020-03-22 21:00:00 8.7 4 Sudeste 10 Sudeste 0 943.1 2 92
2020-03-22 20:00:00 8.7 2 Sur 8 Sur 0 942.2 1.4 89
2020-03-22 19:00:00 9.2 2 Sur 20 Sur 0 941.6 0.9 84
2020-03-22 18:00:00 10.2 6 Sur 22 Sur 0 941.1 0.2 85
2020-03-22 17:00:00 10.7 7 Sur 17 Sudeste 0 940.8 -0.4 97
2020-03-22 16:00:00 9.2 6 Sudoeste 12 Sudoeste 0 940.7 -0.9 98
2020-03-22 15:00:00 8.7 6 Sudoeste 13 Oeste 0.3 940.9 -0.9 98
2020-03-22 14:00:00 8.9 5 Sur 15 Sudoeste 0.8 941.2 -0.4 98
2020-03-22 13:00:00 9.1 7 Sudoeste 13 Oeste 0 941.6 0 98
2020-03-22 12:00:00 9 6 Oeste 10 Sudoeste 0 941.8 0.7 98
2020-03-22 11:00:00 8.2 0 Calma 8 Este 0.1 941.6 0.5 98
2020-03-22 10:00:00 7.3 0 Calma 11 Este 0 941.6 1 98
2020-03-22 09:00:00 6.4 7 Nordeste 11 Nordeste 0 941.1 0.6 98
2020-03-22 08:00:00 5.3 2 Nordeste 12 Nordeste 0 941.1 0.8 98
2020-03-22 07:00:00 4.8 4 Este 8 Este 0 940.6 0 98
2020-03-22 06:00:00 5.1 0 Calma 9 Nordeste 0 940.5 -0.8 98
2020-03-22 05:00:00 4.7 2 Nordeste 9 Nordeste 0 940.3 -1 98
2020-03-22 04:00:00 5.2 6 Nordeste 10 Nordeste 0 940.6 -1.2 98
2020-03-22 03:00:00 5.2 3 Nordeste 13 Nordeste 0 941.3 -1.1 98
2020-03-22 02:00:00 5 5 Este 18 Norte 0 941.3 -1.4 98
2020-03-22 01:00:00 4.9 8 Nordeste 15 Nordeste 0.1 941.8 -1.1 98
2020-03-22 00:00:00 4.6 0 Calma 6 Norte 0 942.4 -0.2 98
2020-03-21 23:00:00 4.6 0 Calma 4 Norte 0 942.7 -0.3 97
2020-03-21 22:00:00 5.1 3 Noroeste 7 Nordeste 0 942.9 0.5 97
2020-03-21 21:00:00 6.4 6 Nordeste 19 Este 0.5 942.6 0.8 97
2020-03-21 20:00:00 7.2 0 Calma 13 Norte 0.3 943 0.9 97
2020-03-21 19:00:00 7.1 7 Norte 18 Este 0.7 942.4 -0.1 97
2020-03-21 18:00:00 7.1 13 Nordeste 22 Nordeste 4.5 941.8 -0.2 96
2020-03-21 17:00:00 7.2 3 Norte 19 Oeste 3.8 942.1 -0.3 96
2020-03-21 16:00:00 7.8 14 Oeste 24 Oeste 3.6 942.5 0 95
2020-03-21 15:00:00 7.7 14 Norte 28 Noroeste 2 942 -0.8 95
2020-03-21 14:00:00 9.9 7 Oeste 15 Oeste 1.1 942.4 -0.7 92
2020-03-21 13:00:00 10.9 3 Oeste 14 Oeste 0 942.5 -0.7 82
2020-03-21 12:00:00 11.6 6 Sudoeste 13 Sudoeste 0 942.8 -0.6 81
2020-03-21 11:00:00 11.2 4 Sudoeste 12 Sur 0 943.1 -0.4 88
2020-03-21 10:00:00 10.3 4 Sudeste 12 Sudeste 0 943.2 -0.4 97
2020-03-21 09:00:00 8.9 3 Este 9 Este 0 943.4 -0.2 97
2020-03-21 08:00:00 8.8 0 Calma 8 Sudoeste 0.6 943.5 -0.1 97
2020-03-21 07:00:00 8.7 0 Calma 9 Sudeste 0 943.6 -0.3 97
2020-03-21 06:00:00 8.7 5 Sur 14 Sur 0 943.6 -0.6 97
2020-03-21 05:00:00 8.9 3 Sur 10 Sur 0 943.6 -1.4 97
2020-03-21 04:00:00 8.8 0 Calma 6 Sudeste 0.1 943.9 -2.1 97
2020-03-21 03:00:00 8.8 3 Sudeste 6 Sudeste 0 944.2 -2 97
2020-03-21 02:00:00 8.9 0 Calma 4 Sur 0.4 945 -1.8 97
2020-03-21 01:00:00 9 0 Calma 3 Sudoeste 0.2 946 -0.6 95
2020-03-21 00:00:00 9 0 Calma 8 Este 0.2 946.2 0.2 94
2020-03-20 23:00:00 9.4 3 Sudeste 19 Sur 0 946.8 1.4 89
2020-03-20 22:00:00 9.8 8 Sudeste 21 Este 0 946.6 1.5 84
2020-03-20 21:00:00 10.1 12 Este 26 Este 0 946 0.9 80
2020-03-20 20:00:00 10.3 15 Este 26 Este 0 945.4 0.1 78
2020-03-20 19:00:00 10.7 12 Este 24 Este 0 945.1 -0.8 76
2020-03-20 18:00:00 11.7 10 Sudeste 20 Sudeste 0 945.1 -1.4 68
2020-03-20 17:00:00 11.7 7 Sudeste 17 Este 0 945.3 -1.7 69
2020-03-20 16:00:00 11.5 11 Este 19 Este 0 945.9 -1.4 67
2020-03-20 15:00:00 11.8 4 Sur 17 Sudeste 0 946.5 -1.3 65
2020-03-20 14:00:00 11.9 9 Sudeste 13 Sudeste 0 947 -1 65
2020-03-20 13:00:00 12.6 5 Sur 17 Sur 0 947.3 -0.7 59
2020-03-20 12:00:00 12.5 8 Sudoeste 17 Sudeste 0 947.8 0 61
2020-03-20 11:00:00 10.9 8 Sudeste 22 Sudeste 0 948 0.5 71
2020-03-20 10:00:00 10.5 11 Sudeste 19 Sudeste 0 948 0.9 76
2020-03-20 09:00:00 9.9 8 Este 16 Este 0 947.8 0.9 86
2020-03-20 08:00:00 8.6 8 Sudeste 14 Este 0 947.5 0.4 92
2020-03-20 07:00:00 8.1 4 Sudeste 8 Sudeste 0 947.1 -0.1 93
2020-03-20 06:00:00 7.9 0 Calma 5 Este 0 946.9 -0.8 91
2020-03-20 05:00:00 8.1 3 Sudeste 6 Este 0 947.1 -1.5 90
2020-03-20 04:00:00 7.9 3 Nordeste 9 Este 0 947.2 -1.5 90
2020-03-20 03:00:00 8 6 Este 10 Este 0 947.7 -1.4 89
2020-03-20 02:00:00 7.9 2 Este 12 Este 0 948.6 -0.9 86
2020-03-20 01:00:00 8.7 8 Sudeste 14 Este 0 948.7 -0.6 84
2020-03-20 00:00:00 9.7 5 Sudeste 14 Sudeste 0 949.1 -0.2 85
2020-03-19 23:00:00 10.3 3 Sur 9 Sur 0 949.5 0.5 85
2020-03-19 22:00:00 10.5 2 Sur 12 Sur 0 949.3 0.6 83
2020-03-19 21:00:00 11 4 Sur 13 Sudoeste 0 949.3 0.9 78
2020-03-19 20:00:00 11.5 3 Sur 16 Sur 0 949 0.3 72
2020-03-19 19:00:00 12 7 Sur 19 Sudoeste 0 948.7 -0.3 66
2020-03-19 18:00:00 12.9 8 Sudoeste 17 Sudoeste 0 948.4 -1.2 61
2020-03-19 17:00:00 13.2 6 Sur 13 Sur 0 948.7 -1.6 60
2020-03-19 16:00:00 13.4 5 Sur 11 Sudoeste 0 949 -2.1 60
2020-03-19 15:00:00 13.2 6 Sudoeste 13 Sudoeste 0 949.6 -2 60
2020-03-19 14:00:00 12.6 4 Sudoeste 14 Sudoeste 0 950.3 -1.7 62
2020-03-19 13:00:00 13.4 6 Sudoeste 15 Sudoeste 0 951.1 -1.1 62
2020-03-19 12:00:00 11.9 5 Sur 12 Sudeste 0 951.6 -0.2 70
2020-03-19 11:00:00 10.7 8 Sudeste 17 Sudeste 0 952 0.2 78
2020-03-19 10:00:00 10 6 Sudeste 15 Este 0 952.2 0.5 87
2020-03-19 09:00:00 8.6 7 Este 13 Este 0 951.8 0 95
2020-03-19 08:00:00 7.1 4 Este 9 Este 0 951.8 0.2 95
2020-03-19 07:00:00 6.5 3 Este 7 Nordeste 0 951.7 -0.3 95
2020-03-19 06:00:00 6.2 3 Este 5 Nordeste 0 951.8 -0.6 95
2020-03-19 05:00:00 6.1 0 Calma 5 Este 0 951.6 -1.5 92
2020-03-19 04:00:00 7.3 0 Calma 11 Este 0 952 -1.3 90
2020-03-19 03:00:00 7.8 7 Este 15 Este 0 952.4 -1.4 89
2020-03-19 02:00:00 7.7 6 Este 14 Este 0 953.1 -1.2 89
2020-03-19 01:00:00 7.8 6 Este 16 Este 0 953.3 -0.9 87
2020-03-19 00:00:00 8 6 Este 13 Nordeste 0 953.8 -0.2 84
2020-03-18 23:00:00 8.5 9 Este 17 Este 0 954.3 0.8 79
2020-03-18 22:00:00 8.8 9 Este 27 Este 0 954.2 1.2 74
2020-03-18 21:00:00 9.7 14 Este 24 Este 0 954 1.1 68
2020-03-18 20:00:00 10.6 12 Este 26 Este 0 953.5 0.8 66
2020-03-18 19:00:00 12 14 Este 27 Sudeste 0 953 -0.1 61
2020-03-18 18:00:00 13.2 15 Sudeste 29 Sudeste 0 952.9 -0.5 55
2020-03-18 17:00:00 14.1 17 Sudeste 31 Este 0 952.7 -1.4 53
2020-03-18 16:00:00 14.4 14 Este 33 Sudeste 0 953.1 -2 55
2020-03-18 15:00:00 14.7 17 Este 34 Sudeste 0 953.4 -2.3 52
2020-03-18 14:00:00 13.8 18 Este 36 Este 0 954.1 -1.7 59
2020-03-18 13:00:00 13 18 Nordeste 31 Nordeste 0 955.1 -0.5 66
2020-03-18 12:00:00 11.4 13 Nordeste 33 Nordeste 0 955.7 0.4 72
2020-03-18 11:00:00 11.3 17 Nordeste 31 Nordeste 0 955.8 0.5 77
2020-03-18 10:00:00 11.1 15 Nordeste 26 Nordeste 0 955.6 0.4 84
2020-03-18 09:00:00 10.4 0 Calma 14 Norte 0 955.3 0.2 89
2020-03-18 08:00:00 9.6 4 Norte 10 Nordeste 0 955.3 0.6 89
2020-03-18 07:00:00 9.5 5 Nordeste 20 Nordeste 0 955.2 0.2 87
2020-03-18 06:00:00 9.4 2 Nordeste 18 Norte 0 955.1 0.1 84
2020-03-18 05:00:00 9.5 6 Norte 15 Norte 0 954.7 -0.3 83
2020-03-18 04:00:00 10.3 8 Norte 16 Nordeste 0 955 -0.2 81
2020-03-18 03:00:00 10.5 8 Norte 27 Norte 0 955 -0.2 81
2020-03-18 02:00:00 10.7 7 Nordeste 15 Nordeste 0 955 -0.4 82
2020-03-18 01:00:00 10.7 8 Nordeste 21 Nordeste 0 955.2 0.2 82
2020-03-18 00:00:00 10.7 12 Nordeste 24 Nordeste 0 955.2 1.1 83
2020-03-17 23:00:00 11.1 9 Norte 26 Norte 0 955.4 2.2 83
2020-03-17 22:00:00 11.8 13 Norte 32 Norte 0 955 2.2 84
2020-03-17 21:00:00 12.1 18 Norte 42 Noroeste 0 954.1 1.6 84
2020-03-17 20:00:00 12.3 23 Noroeste 45 Noroeste 0.1 953.2 1 86
2020-03-17 19:00:00 12.3 14 Norte 36 Noroeste 0 952.8 0.5 87
2020-03-17 18:00:00 12.8 18 Noroeste 33 Norte 0 952.5 0.3 84
2020-03-17 17:00:00 12.6 9 Norte 21 Noroeste 0 952.2 -0.6 82
2020-03-17 16:00:00 12.6 11 Noroeste 19 Norte 0 952.3 -0.7 78
2020-03-17 15:00:00 12.5 10 Noroeste 23 Noroeste 0 952.2 -1 74
2020-03-17 14:00:00 11.9 10 Norte 19 Norte 0 952.8 -0.3 72
2020-03-17 13:00:00 12 7 Noroeste 20 Norte 0 953 0.4 72
2020-03-17 12:00:00 10.8 10 Norte 19 Norte 0 953.2 1.6 76
2020-03-17 11:00:00 10.5 7 Norte 15 Norte 0 953.1 2.3 75
2020-03-17 10:00:00 9.3 7 Norte 12 Norte 0 952.6 2.5 77
2020-03-17 09:00:00 7.5 0 Calma 5 Oeste 0 951.6 2.3 92
2020-03-17 08:00:00 6.2 0 Calma 5 Oeste 0 950.8 2.4 93
2020-03-17 07:00:00 5.6 4 Sudeste 9 Sudeste 0 950.1 1.7 92
2020-03-17 06:00:00 6 0 Calma 7 Oeste 0 949.3 1.1 92
2020-03-17 05:00:00 5.6 0 Calma 4 Oeste 0 948.4 0.3 90
2020-03-17 04:00:00 5.9 0 Calma 9 Oeste 0 948.4 0.4 88
2020-03-17 03:00:00 5.2 4 Oeste 11 Oeste 0 948.2 0.3 88
2020-03-17 02:00:00 4.7 6 Oeste 13 Sudoeste 0 948.1 0.3 88
2020-03-17 01:00:00 4.4 8 Oeste 14 Sudoeste 0 948 1.3 90
2020-03-17 00:00:00 3.8 6 Oeste 12 Oeste 0 947.9 2 90
2020-03-16 23:00:00 3.7 0 Calma 9 Noroeste 0 947.8 3.1 87
2020-03-16 22:00:00 4.4 0 Calma 4 Noroeste 0 946.7 2.8 83
2020-03-16 21:00:00 5.6 0 Calma 10 Oeste 0 945.9 2.9 75
2020-03-16 20:00:00 7 5 Noroeste 19 Noroeste 0 944.7 2.1 65
2020-03-16 19:00:00 8 9 Noroeste 23 Noroeste 0 943.9 1.3 62
2020-03-16 18:00:00 8.8 11 Noroeste 21 Noroeste 0 943 0.1 61
2020-03-16 17:00:00 8 10 Noroeste 21 Noroeste 0 942.6 0 66
2020-03-16 16:00:00 7.3 10 Oeste 23 Noroeste 0 942.6 -0.3 73
2020-03-16 15:00:00 6.5 9 Oeste 21 Oeste 0 942.9 0.2 85
2020-03-16 14:00:00 5.6 12 Oeste 20 Oeste 0 942.6 -0.2 89
2020-03-16 13:00:00 4.6 12 Noroeste 24 Oeste 1.2 942.9 0.6 92
2020-03-16 12:00:00 5.4 10 Sudoeste 16 Sudoeste 0.1 942.7 2.1 96
2020-03-16 11:00:00 5.6 7 Oeste 15 Oeste 2 942.8 2.4 98
2020-03-16 10:00:00 5.8 12 Oeste 24 Sur 3 942.3 2.5 98
2020-03-16 09:00:00 10.3 9 Nordeste 21 Este 0 940.6 0.7 98
2020-03-16 08:00:00 10.2 8 Nordeste 21 Nordeste 0 940.4 0 98
2020-03-16 07:00:00 10.3 5 Nordeste 14 Nordeste 0 939.8 -1.1 97
2020-03-16 06:00:00 10.4 4 Nordeste 11 Nordeste 0 939.9 -2 97
2020-03-16 05:00:00 10.4 3 Nordeste 10 Nordeste 0 940.4 -2.6 97
2020-03-16 04:00:00 10.3 3 Norte 10 Norte 0.1 940.9 -2.9 97
2020-03-16 03:00:00 10.3 4 Norte 15 Nordeste 0.5 941.9 -2 97
2020-03-16 02:00:00 10.4 5 Nordeste 13 Nordeste 0.8 943 -1.2 97
2020-03-16 01:00:00 10.5 7 Nordeste 20 Nordeste 0.6 943.8 -0.4 96
2020-03-16 00:00:00 11.2 5 Este 18 Este 0.1 943.9 -0.1 93
2020-03-15 23:00:00 11.5 5 Nordeste 11 Nordeste 0 944.2 0.4 86
2020-03-15 22:00:00 11.7 7 Nordeste 13 Nordeste 0 944.2 0.1 84
2020-03-15 21:00:00 12 6 Nordeste 13 Nordeste 0 944 0.4 82
2020-03-15 20:00:00 12.8 8 Nordeste 19 Nordeste 0 943.8 0 76
2020-03-15 19:00:00 14 8 Nordeste 24 Nordeste 0 944.1 -0.2 65
2020-03-15 18:00:00 15.4 16 Nordeste 27 Este 0 943.6 -1.1 52
2020-03-15 17:00:00 17 11 Nordeste 24 Nordeste 0 943.8 -2 46
2020-03-15 16:00:00 17.8 12 Nordeste 24 Este 0 944.3 -2.3 42
2020-03-15 15:00:00 18.9 12 Este 24 Este 0 944.7 -2.9 39
2020-03-15 14:00:00 18.3 12 Este 24 Este 0 945.8 -2.4 41
2020-03-15 13:00:00 17.6 8 Este 22 Este 0 946.6 -2.1 46
2020-03-15 12:00:00 15.2 6 Nordeste 15 Nordeste 0 947.6 -0.8 61
2020-03-15 11:00:00 13 6 Este 15 Este 0 948.2 0.1 75
2020-03-15 10:00:00 11.7 6 Este 11 Este 0 948.7 0.8 95
2020-03-15 09:00:00 10.5 3 Norte 8 Nordeste 0 948.4 0.4 98
2020-03-15 08:00:00 9.8 2 Norte 9 Norte 0 948.1 0 98
2020-03-15 07:00:00 9.9 0 Calma 7 Norte 0 947.9 -0.5 97
2020-03-15 06:00:00 9.9 3 Norte 8 Norte 0 948 -1.1 97
2020-03-15 05:00:00 10.1 2 Nordeste 5 Nordeste 0 948.1 -1.1 97
2020-03-15 04:00:00 10.2 2 Nordeste 9 Nordeste 0 948.4 -1.2 97
2020-03-15 03:00:00 10.4 4 Nordeste 9 Nordeste 0 949.1 -0.7 97
2020-03-15 02:00:00 10.2 3 Este 10 Nordeste 0 949.2 -0.4 97
2020-03-15 01:00:00 9.4 2 Sur 5 Sudeste 0 949.6 0.2 95
2020-03-15 00:00:00 10.6 0 Calma 8 Este 0 949.8 0.8 92
2020-03-14 23:00:00 11.6 7 Este 16 Este 0 949.6 1.1 90
2020-03-14 22:00:00 12.3 8 Nordeste 14 Nordeste 0 949.4 1.3 88
2020-03-14 21:00:00 13.3 4 Este 13 Este 0 949 0.9 81
2020-03-14 20:00:00 15 8 Este 18 Nordeste 0 948.5 0.6 70
2020-03-14 19:00:00 16.9 8 Este 15 Nordeste 0 948.1 0 52
2020-03-14 18:00:00 18.4 3 Nordeste 17 Norte 0 948.1 -0.4 48
2020-03-14 17:00:00 18.8 8 Este 20 Este 0 947.9 -1.4 48
2020-03-14 16:00:00 20.8 6 Nordeste 18 Este 0 948.1 -1.8 46
2020-03-14 15:00:00 20.2 8 Nordeste 19 Nordeste 0 948.5 -1.9 48
2020-03-14 14:00:00 18.5 4 Nordeste 16 Nordeste 0 949.3 -1.3 53
2020-03-14 13:00:00 17.7 4 Este 16 Este 0 949.9 -0.6 54
2020-03-14 12:00:00 15.9 4 Nordeste 17 Este 0 950.4 0.4 59
2020-03-14 11:00:00 14.5 8 Este 14 Este 0 950.6 1.2 63
2020-03-14 10:00:00 12.5 3 Norte 8 Nordeste 0 950.5 1.5 78
2020-03-14 09:00:00 9.8 0 Calma 4 Noroeste 0 950 1.3 90
2020-03-14 08:00:00 7.6 0 Calma 4 Noroeste 0 949.4 0.7 91
2020-03-14 07:00:00 7.9 2 Noroeste 9 Oeste 0 949 0.3 89
2020-03-14 06:00:00 8.4 0 Calma 6 Noroeste 0 948.7 -0.4 88
2020-03-14 05:00:00 8.7 3 Oeste 6 Oeste 0 948.7 -0.7 86
2020-03-14 04:00:00 9.4 0 Calma 3 Sur 0 948.7 -0.8 86
2020-03-14 03:00:00 9.3 0 Calma 0 Calma 0 949.1 -0.6 84
2020-03-14 02:00:00 9.5 0 Calma 3 Sur 0 949.4 -0.3 80
2020-03-14 01:00:00 9.6 0 Calma 4 Nordeste 0 949.5 0.4 74
2020-03-14 00:00:00 11 3 Nordeste 9 Este 0 949.7 1.2 68
2020-03-13 23:00:00 11.9 4 Nordeste 17 Este 0 949.7 1.7 64
2020-03-13 22:00:00 12.5 8 Este 15 Este 0 949.1 1.7 62
2020-03-13 21:00:00 13.3 5 Este 21 Nordeste 0 948.5 1.6 58
2020-03-13 20:00:00 14.3 7 Nordeste 19 Este 0 948 1.3 53
2020-03-13 19:00:00 15.5 13 Este 22 Este 0 947.4 0.7 48
2020-03-13 18:00:00 17.2 12 Este 23 Nordeste 0 946.9 -0.2 47
2020-03-13 17:00:00 20.2 9 Nordeste 26 Este 0 946.7 -1.2 44
2020-03-13 16:00:00 21.1 8 Nordeste 21 Nordeste 0 946.7 -1.6 43
2020-03-13 15:00:00 21.8 8 Nordeste 24 Este 0 947.1 -1.8 43
2020-03-13 14:00:00 21.3 9 Este 21 Este 0 947.9 -1.2 45
2020-03-13 13:00:00 19.7 6 Norte 18 Norte 0 948.3 -0.5 49
2020-03-13 12:00:00 18.2 9 Norte 18 Noroeste 0 948.9 0.3 54
2020-03-13 11:00:00 17 8 Noroeste 15 Norte 0 949.1 1.1 57
2020-03-13 10:00:00 14.9 8 Norte 14 Norte 0 948.8 1.5 61
2020-03-13 09:00:00 13.5 4 Noroeste 9 Norte 0 948.6 1.7 66
2020-03-13 08:00:00 11.4 7 Oeste 12 Oeste 0 948 1.3 69
2020-03-13 07:00:00 11 5 Oeste 11 Oeste 0 947.3 0.6 68
2020-03-13 06:00:00 11.2 5 Noroeste 10 Oeste 0 946.9 -0.4 66
2020-03-13 05:00:00 12.5 7 Oeste 13 Oeste 0 946.7 -1 63
2020-03-13 04:00:00 12.4 6 Oeste 10 Oeste 0 946.7 -1.3 63
2020-03-13 03:00:00 12.7 0 Calma 7 Oeste 0 947.3 -1 59
2020-03-13 02:00:00 13.2 0 Calma 5 Sudoeste 0 947.7 -0.8 58
2020-03-13 01:00:00 13.6 3 Sudoeste 6 Sur 0 948 -0.3 56
2020-03-13 00:00:00 14 0 Calma 10 Sudoeste 0 948.3 0.1 56
2020-03-12 23:00:00 14.7 4 Sur 5 Sudoeste 0 948.5 0.8 55
2020-03-12 22:00:00 15.9 2 Sur 5 Sur 0 948.3 0.9 51
2020-03-12 21:00:00 18.1 0 Calma 11 Nordeste 0 948.2 1 47
2020-03-12 20:00:00 19.3 0 Calma 10 Nordeste 0 947.7 0.6 40
2020-03-12 19:00:00 22.2 7 Nordeste 18 Este 0 947.4 -0.6 34
2020-03-12 18:00:00 24.1 9 Nordeste 20 Este 0 947.2 -1.3 33
2020-03-12 17:00:00 25.2 9 Nordeste 18 Nordeste 0 947.1 -2.4 31
2020-03-12 16:00:00 26 8 Nordeste 20 Nordeste 0 948 -2.8 32
2020-03-12 15:00:00 25.8 11 Este 21 Este 0 948.5 -2.9 32
2020-03-12 14:00:00 24.6 7 Nordeste 17 Nordeste 0 949.5 -2.1 35
2020-03-12 13:00:00 22.9 6 Nordeste 14 Nordeste 0 950.8 -0.6 39
2020-03-12 12:00:00 21.6 5 Este 12 Este 0 951.4 -0.1 45
2020-03-12 11:00:00 19.3 2 Nordeste 7 Este 0 951.6 0.4 54
2020-03-12 10:00:00 17 0 Calma 4 Oeste 0 951.4 0.3 61
2020-03-12 09:00:00 13.8 0 Calma 9 Oeste 0 951.5 0.6 70
2020-03-12 08:00:00 11.8 5 Oeste 12 Oeste 0 951.2 0 74
2020-03-12 07:00:00 11.1 6 Oeste 10 Oeste 0 951.1 -0.4 75
2020-03-12 06:00:00 11.5 0 Calma 9 Oeste 0 950.9 -1.3 72
2020-03-12 05:00:00 12.1 7 Oeste 9 Oeste 0 951.2 -1.2 70
2020-03-12 04:00:00 12.5 5 Oeste 8 Oeste 0 951.5 -1.4 69
2020-03-12 03:00:00 13.1 0 Calma 8 Oeste 0 952.2 -0.8 64
2020-03-12 02:00:00 14.1 5 Oeste 7 Oeste 0 952.4 -0.5 62
2020-03-12 01:00:00 14.6 0 Calma 4 Sur 0 952.9 -0.1 62
2020-03-12 00:00:00 14.7 2 Sur 6 Sur 0 953 0.4 60
2020-03-11 23:00:00 15.4 4 Sur 6 Sur 0 952.9 0.8 57
2020-03-11 22:00:00 16.9 0 Calma -- -- 0 953 1.3 53
2020-03-11 21:00:00 18 0 Calma 9 Este 0 952.6 1.2 49
2020-03-11 20:00:00 20.8 4 Este 10 Este 0 952.1 0.7 39
2020-03-11 19:00:00 24.7 0 Calma 11 Noroeste 0 951.7 0.2 28
2020-03-11 18:00:00 27 7 Oeste 16 Oeste 0 951.4 -0.7 25
2020-03-11 17:00:00 27.5 9 Oeste 19 Noroeste 0 951.4 -1.6 25
2020-03-11 16:00:00 28 0 Calma 16 Oeste 0 951.5 -2.4 27
2020-03-11 15:00:00 27.3 4 Oeste 14 Sudeste 0 952.1 -2.4 31
2020-03-11 14:00:00 26.4 0 Calma 10 Este 0 953 -2.2 33
2020-03-11 13:00:00 24.9 5 Sudoeste 12 Sur 0 953.9 -1.2 36
2020-03-11 12:00:00 22.5 4 Oeste 11 Oeste 0 954.5 -0.2 41
2020-03-11 11:00:00 19.9 3 Sudoeste 11 Oeste 0 955.2 0.8 46
2020-03-11 10:00:00 17.6 7 Oeste 12 Oeste 0 955.1 1.4 48
2020-03-11 09:00:00 15.4 9 Oeste 15 Oeste 0 954.7 1.3 51
2020-03-11 08:00:00 12.6 2 Oeste 8 Oeste 0 954.4 1 53
2020-03-11 07:00:00 13.8 5 Oeste 15 Sudoeste 0 953.7 0 50
2020-03-11 06:00:00 14.2 4 Sudoeste 20 Sudoeste 0 953.4 -0.5 49
2020-03-11 05:00:00 15.2 11 Oeste 18 Oeste 0 953.4 -1.2 49
2020-03-11 04:00:00 15 2 Sudoeste 14 Sudoeste 0 953.7 -1.4 47
2020-03-11 03:00:00 14.4 4 Sudoeste 19 Este 0 953.9 -1.3 47
2020-03-11 02:00:00 15.8 3 Oeste 18 Sudoeste 0 954.6 -0.6 46
2020-03-11 01:00:00 14.7 9 Sur 16 Sudoeste 0 955.1 0 48
2020-03-11 00:00:00 14.8 8 Oeste 13 Oeste 0 955.2 0.1 49
2020-03-10 23:00:00 13.3 2 Sudoeste 11 Oeste 0 955.2 0.5 51
2020-03-10 22:00:00 14.8 6 Oeste 11 Oeste 0 955.1 0.9 48
2020-03-10 21:00:00 15.2 0 Calma 14 Este 0 955.1 1.5 45
2020-03-10 20:00:00 17.9 2 Oeste 10 Sudoeste 0 954.7 1.1 38
2020-03-10 19:00:00 21 8 Oeste 20 Oeste 0 954.2 0.2 34
2020-03-10 18:00:00 22.6 8 Oeste 18 Oeste 0 953.6 -1 32
2020-03-10 17:00:00 23.2 12 Sudoeste 24 Sudoeste 0 953.6 -1.8 32
2020-03-10 16:00:00 23.1 9 Sudoeste 22 Oeste 0 954 -2.1 33
2020-03-10 15:00:00 22.2 11 Oeste 26 Sudoeste 0 954.6 -1.9 33
2020-03-10 14:00:00 21.3 13 Sudoeste 24 Oeste 0 955.4 -1.4 34
2020-03-10 13:00:00 20 13 Sudoeste 25 Oeste 0 956.1 -0.3 36
2020-03-10 12:00:00 18.8 17 Oeste 27 Oeste 0 956.5 0.7 37
2020-03-10 11:00:00 17.1 12 Sudoeste 20 Sur 0 956.8 1.4 40
2020-03-10 10:00:00 14.5 3 Nordeste 10 Nordeste 0 956.4 1.5 44
2020-03-10 09:00:00 11.6 4 Nordeste 21 Sudoeste 0 955.8 1.8 49
2020-03-10 08:00:00 10.1 13 Oeste 27 Oeste 0 955.4 1.9 50
2020-03-10 07:00:00 9.7 9 Oeste 30 Oeste 0 954.9 1.3 50
2020-03-10 06:00:00 10.2 19 Oeste 40 Sudoeste 0 954 0.6 49
2020-03-10 05:00:00 10.9 17 Sudoeste 41 Oeste 0 953.5 -0.1 47
2020-03-10 04:00:00 10.8 25 Sudoeste 46 Oeste 0 953.6 -0.6 47
2020-03-10 03:00:00 10.8 23 Sudoeste 53 Sudoeste 0 953.4 -1 46
2020-03-10 02:00:00 11.7 23 Sudoeste 46 Oeste 0 953.6 -0.2 45
2020-03-10 01:00:00 12.9 16 Oeste 36 Oeste 0 954.2 0.8 41
2020-03-10 00:00:00 12.3 17 Oeste 37 Sudoeste 0 954.4 1.4 42